Time;durP1;ratioP1;P1;durP2;ratioP2;P2;SDS_P1;SDS_P2;PMS_P1;PMS_P2;Temp;Humidity;BMP_temperature;BMP_pressure;BME280_temperature;BME280_humidity;BME280_pressure;Samples;Min_cycle;Max_cycle;Signal;HPM_P1;HPM_P2
2021/09/27 00:01:45;;;;;;;35.35;22.25;;;18.70;99.90;;;;;;5073965;28;20032;-71
2021/09/27 00:04:11;;;;;;;36.58;23.77;;;18.70;99.90;;;;;;5073904;28;20449;-71
2021/09/27 00:06:37;;;;;;;34.15;23.38;;;18.70;99.90;;;;;;5056034;28;20024;-72
2021/09/27 00:09:03;;;;;;;36.20;22.00;;;18.60;99.90;;;;;;5073775;28;20035;-72
2021/09/27 00:11:29;;;;;;;33.70;22.92;;;18.60;99.90;;;;;;5073743;28;20072;-71
2021/09/27 00:14:02;;;;;;;38.15;23.40;;;18.60;99.90;;;;;;5055387;28;20129;-71
2021/09/27 00:16:29;;;;;;;39.00;23.02;;;18.60;99.90;;;;;;5073727;28;20028;-71
2021/09/27 00:18:55;;;;;;;32.40;22.88;;;18.60;99.90;;;;;;5073624;28;20522;-70
2021/09/27 00:21:29;;;;;;;39.47;25.48;;;18.60;99.90;;;;;;5072981;28;20037;-70
2021/09/27 00:23:56;;;;;;;37.45;24.35;;;18.50;99.90;;;;;;5073648;28;20052;-70
2021/09/27 00:26:23;;;;;;;34.03;23.92;;;18.30;99.90;;;;;;5073500;28;20020;-70
2021/09/27 00:28:49;;;;;;;43.58;25.48;;;18.10;99.90;;;;;;5055190;28;20035;-70
2021/09/27 00:31:16;;;;;;;39.83;26.05;;;18.00;99.90;;;;;;5055454;28;20032;-70
2021/09/27 00:33:43;;;;;;;37.53;25.00;;;18.00;99.90;;;;;;5055417;28;20028;-71
2021/09/27 00:36:09;;;;;;;42.25;27.10;;;18.00;99.90;;;;;;5073395;28;20376;-71
2021/09/27 00:38:35;;;;;;;36.55;23.30;;;17.90;99.90;;;;;;5073355;28;20103;-70
2021/09/27 00:41:06;;;;;;;35.45;24.95;;;17.70;99.90;;;;;;5073309;28;20111;-70
2021/09/27 00:43:34;;;;;;;36.95;26.33;;;17.60;99.90;;;;;;5073053;28;20473;-70
2021/09/27 00:46:05;;;;;;;40.53;26.02;;;17.60;99.90;;;;;;5055299;28;20040;-70
2021/09/27 00:48:31;;;;;;;43.42;26.63;;;17.60;99.90;;;;;;5054974;28;20032;-69
2021/09/27 00:51:05;;;;;;;40.80;26.48;;;17.40;99.90;;;;;;5073062;28;20093;-69
2021/09/27 00:53:43;;;;;;;46.65;27.10;;;17.40;99.90;;;;;;5055158;28;20041;-69
2021/09/27 00:56:12;;;;;;;37.83;25.15;;;17.40;99.90;;;;;;5073182;28;20466;-69
2021/09/27 00:58:39;;;;;;;35.03;24.90;;;17.50;99.90;;;;;;5073141;28;20052;-70
2021/09/27 01:01:06;;;;;;;35.22;24.77;;;17.60;99.90;;;;;;5055037;28;20088;-69
2021/09/27 01:03:32;;;;;;;34.80;25.27;;;17.70;99.90;;;;;;5072761;28;20024;-69
2021/09/27 01:06:16;;;;;;;37.55;25.33;;;17.70;99.90;;;;;;5073286;28;20040;-69
2021/09/27 01:09:04;;;;;;;36.80;24.90;;;17.80;99.90;;;;;;5073268;28;20412;-68
2021/09/27 01:11:50;;;;;;;37.40;25.95;;;17.70;99.90;;;;;;5072917;28;20028;-71
2021/09/27 01:14:40;;;;;;;43.60;24.05;;;17.70;99.90;;;;;;5072647;28;20041;-69
2021/09/27 01:17:44;;;;;;;42.65;24.33;;;17.70;99.90;;;;;;5072960;28;20099;-71
2021/09/27 01:20:21;;;;;;;31.33;21.83;;;17.80;99.90;;;;;;5072948;28;20028;-69
2021/09/27 01:23:04;;;;;;;39.70;24.13;;;17.80;99.90;;;;;;5072819;28;20082;-70
2021/09/27 01:25:36;;;;;;;34.38;21.63;;;17.80;99.90;;;;;;5054877;28;20029;-71
2021/09/27 01:28:24;;;;;;;32.10;22.13;;;17.80;99.90;;;;;;5072841;28;20025;-72
2021/09/27 01:31:19;;;;;;;32.83;22.63;;;17.80;99.90;;;;;;5054769;28;20082;-71
2021/09/27 01:33:57;;;;;;;32.95;23.10;;;17.70;99.90;;;;;;5073816;28;20064;-71
2021/09/27 01:36:36;;;;;;;43.10;23.02;;;17.60;99.90;;;;;;5076842;28;20081;-71
2021/09/27 01:39:38;;;;;;;32.03;21.70;;;17.60;99.90;;;;;;5076777;28;20031;-73
2021/09/27 01:42:13;;;;;;;32.13;21.60;;;17.60;99.90;;;;;;5076777;28;20020;-69
2021/09/27 01:45:11;;;;;;;33.55;23.00;;;17.60;99.90;;;;;;5076660;28;20044;-73
2021/09/27 01:47:44;;;;;;;36.67;23.98;;;17.50;99.90;;;;;;5053371;28;20085;-72
2021/09/27 01:50:22;;;;;;;31.27;23.63;;;17.30;99.90;;;;;;5058543;28;20081;-74
2021/09/27 01:52:57;;;;;;;41.30;24.50;;;17.30;99.90;;;;;;5058475;28;20020;-68
2021/09/27 01:55:48;;;;;;;42.40;23.92;;;17.20;99.90;;;;;;5058499;28;20131;-72
2021/09/27 01:58:28;;;;;;;34.67;23.50;;;17.20;99.90;;;;;;5076323;28;20032;-71
2021/09/27 02:01:02;;;;;;;35.08;24.77;;;17.20;99.90;;;;;;5058017;28;20128;-71
2021/09/27 02:03:32;;;;;;;31.50;22.20;;;17.20;99.90;;;;;;5076039;28;20029;-72
2021/09/27 02:06:17;;;;;;;41.60;23.65;;;17.20;99.90;;;;;;5076485;28;20028;-71
2021/09/27 02:09:05;;;;;;;31.70;22.00;;;17.20;99.90;;;;;;5076183;28;20036;-71
2021/09/27 02:11:36;;;;;;;30.48;21.08;;;17.20;99.90;;;;;;5075984;28;20036;-71
2021/09/27 02:14:28;;;;;;;37.65;21.42;;;17.20;99.90;;;;;;5054462;28;20052;-69
2021/09/27 02:17:01;;;;;;;31.80;21.05;;;17.10;99.90;;;;;;5032116;28;20473;-69
2021/09/27 02:19:36;;;;;;;28.90;20.77;;;17.10;99.90;;;;;;5056036;28;20025;-71
2021/09/27 02:22:29;;;;;;;31.75;20.85;;;17.00;99.90;;;;;;5056025;28;20032;-72
2021/09/27 02:25:07;;;;;;;31.90;20.85;;;17.10;99.90;;;;;;5055930;28;20096;-71
2021/09/27 02:27:33;;;;;;;35.78;21.73;;;17.10;99.90;;;;;;5055552;28;20445;-73
2021/09/27 02:29:59;;;;;;;39.63;22.05;;;17.10;99.90;;;;;;5055689;28;20134;-72
2021/09/27 02:32:47;;;;;;;50.67;23.33;;;17.00;99.90;;;;;;5054438;28;20120;-71
2021/09/27 02:35:24;;;;;;;54.08;22.98;;;17.00;99.90;;;;;;5055967;28;20029;-72
2021/09/27 02:38:10;;;;;;;34.22;21.70;;;17.00;99.90;;;;;;5055469;28;20025;-72
2021/09/27 02:40:54;;;;;;;38.30;23.95;;;16.80;99.90;;;;;;5055640;28;20500;-72
2021/09/27 02:43:20;;;;;;;38.20;24.55;;;16.80;99.90;;;;;;5055632;28;20063;-72
2021/09/27 02:45:47;;;;;;;37.33;22.73;;;16.90;99.90;;;;;;5054841;28;20021;-71
2021/09/27 02:48:28;;;;;;;31.45;21.23;;;16.90;99.90;;;;;;5054175;28;20053;-72
2021/09/27 02:50:55;;;;;;;36.87;21.83;;;16.90;99.90;;;;;;5055377;28;20033;-72
2021/09/27 02:53:22;;;;;;;36.42;21.40;;;17.00;99.90;;;;;;5055338;28;20029;-72
2021/09/27 02:56:12;;;;;;;39.53;23.00;;;17.00;99.90;;;;;;5053974;28;20054;-71
2021/09/27 02:59:10;;;;;;;38.45;23.67;;;16.90;99.90;;;;;;5055299;28;20029;-69
2021/09/27 03:01:50;;;;;;;36.95;23.25;;;16.80;99.90;;;;;;5038610;28;20055;-73
2021/09/27 03:04:49;;;;;;;51.35;29.00;;;16.70;99.90;;;;;;5055189;28;20541;-69
2021/09/27 03:07:37;;;;;;;55.05;31.38;;;16.60;99.90;;;;;;5055394;28;20029;-69
2021/09/27 03:10:34;;;;;;;52.75;31.73;;;16.40;99.90;;;;;;5055016;28;20037;-71
2021/09/27 03:13:21;;;;;;;51.20;28.58;;;16.40;99.90;;;;;;5046809;28;20463;-69
2021/09/27 03:16:00;;;;;;;48.15;30.35;;;16.30;99.90;;;;;;5053607;28;20363;-70
2021/09/27 03:18:40;;;;;;;50.78;30.38;;;16.20;99.90;;;;;;5054941;28;20447;-70
2021/09/27 03:21:17;;;;;;;67.10;30.15;;;16.20;99.90;;;;;;5054914;28;20036;-70
2021/09/27 03:23:52;;;;;;;58.83;30.98;;;16.20;99.90;;;;;;5053498;28;20036;-71
2021/09/27 03:26:33;;;;;;;53.83;31.95;;;16.10;99.90;;;;;;5054789;28;20037;-71
2021/09/27 03:29:20;;;;;;;54.75;32.78;;;16.10;99.90;;;;;;5055005;28;20024;-71
2021/09/27 03:31:56;;;;;;;61.33;33.35;;;16.00;99.90;;;;;;5054633;28;20100;-69
2021/09/27 03:34:59;;;;;;;61.65;38.17;;;15.90;99.90;;;;;;5054614;28;20116;-71
2021/09/27 03:37:34;;;;;;;60.60;38.72;;;15.90;99.90;;;;;;5054508;28;20059;-69
2021/09/27 03:40:24;;;;;;;68.35;40.83;;;15.90;99.90;;;;;;5054563;28;20103;-71
2021/09/27 03:43:06;;;;;;;62.40;34.20;;;16.00;99.90;;;;;;5054474;28;20082;-70
2021/09/27 03:45:35;;;;;;;60.65;36.33;;;16.10;99.90;;;;;;5053076;28;20029;-72
2021/09/27 03:48:07;;;;;;;64.70;39.65;;;16.20;99.90;;;;;;5054529;28;20039;-72
2021/09/27 03:50:39;;;;;;;66.53;40.53;;;16.20;99.90;;;;;;5054252;28;20523;-73
2021/09/27 03:53:08;;;;;;;;;;;16.30;99.90;;;;;;5054718;28;20047;-69
2021/09/27 03:55:42;;;;;;;78.72;42.13;;;16.40;99.90;;;;;;5054195;28;19918;-73
2021/09/27 03:58:31;;;;;;;67.95;44.33;;;16.40;99.90;;;;;;5053849;28;20029;-71
2021/09/27 04:01:11;;;;;;;65.15;41.03;;;16.40;99.90;;;;;;5054137;28;20029;-71
2021/09/27 04:04:04;;;;;;;85.65;45.05;;;16.50;99.90;;;;;;5054099;28;20036;-71
2021/09/27 04:06:45;;;;;;;79.03;40.40;;;16.50;99.90;;;;;;5022414;28;20240;-71
2021/09/27 04:09:29;;;;;;;82.63;44.47;;;16.50;99.90;;;;;;5052638;28;20432;-70
2021/09/27 04:12:14;;;;;;;74.97;40.58;;;16.40;99.90;;;;;;5053773;28;20056;-71
2021/09/27 04:14:42;;;;;;;69.38;41.95;;;16.20;99.90;;;;;;5052088;28;20056;-71
2021/09/27 04:17:25;;;;;;;65.93;43.25;;;16.10;99.90;;;;;;5054029;28;20040;-70
2021/09/27 04:20:22;;;;;;;63.92;41.38;;;16.00;99.90;;;;;;5052437;28;20029;-71
2021/09/27 04:23:14;;;;;;;62.80;37.17;;;16.10;99.90;;;;;;5052377;28;20170;-70
2021/09/27 04:25:52;;;;;;;67.20;43.47;;;16.10;99.90;;;;;;5041422;28;20033;-71
2021/09/27 04:28:33;;;;;;;81.75;44.65;;;16.10;99.90;;;;;;5053820;28;20039;-69
2021/09/27 04:31:09;;;;;;;65.82;41.90;;;16.00;99.90;;;;;;5053635;28;20076;-69
2021/09/27 04:33:40;;;;;;;75.35;42.60;;;15.90;99.90;;;;;;5052220;28;20031;-70
2021/09/27 04:36:21;;;;;;;;;;;15.80;99.90;;;;;;5053687;28;20029;-71
2021/09/27 04:38:52;;;;;;;69.35;38.90;;;15.80;99.90;;;;;;5053447;28;19908;-71
2021/09/27 04:41:41;;;;;;;65.30;36.78;;;15.80;99.90;;;;;;5052050;28;20478;-69
2021/09/27 04:44:25;;;;;;;55.65;33.25;;;15.80;99.90;;;;;;5053376;28;20025;-73
2021/09/27 04:47:24;;;;;;;53.90;33.70;;;15.90;99.90;;;;;;5053531;28;20029;-70
2021/09/27 04:50:02;;;;;;;45.00;30.75;;;15.90;99.90;;;;;;5052922;28;20029;-73
2021/09/27 04:52:47;;;;;;;42.47;28.25;;;15.90;99.90;;;;;;5051912;28;20190;-73
2021/09/27 04:55:37;;;;;;;49.17;26.65;;;15.90;99.90;;;;;;5053130;28;20028;-72
2021/09/27 04:58:09;;;;;;;44.25;24.65;;;15.90;99.90;;;;;;5053167;28;20025;-71
2021/09/27 05:01:08;;;;;;;38.60;25.10;;;16.00;99.90;;;;;;5052798;28;20428;-71
2021/09/27 05:04:06;;;;;;;43.35;23.80;;;16.00;99.90;;;;;;5052687;28;20025;-72
2021/09/27 05:07:03;;;;;;;47.10;26.08;;;16.20;99.90;;;;;;5024508;28;20048;-72
2021/09/27 05:09:42;;;;;;;51.42;27.23;;;16.30;99.90;;;;;;5051418;28;20029;-72
2021/09/27 05:12:14;;;;;;;41.83;24.42;;;16.30;99.90;;;;;;5053212;28;20052;-72
2021/09/27 05:15:03;;;;;;;46.70;23.70;;;16.40;99.90;;;;;;5064079;28;20040;-72
2021/09/27 05:17:37;;;;;;;46.15;24.15;;;16.40;99.90;;;;;;5008593;28;20089;-72
2021/09/27 05:20:35;;;;;;;44.30;24.30;;;16.50;99.90;;;;;;5054873;28;20073;-72
2021/09/27 05:23:10;;;;;;;44.30;24.17;;;16.50;99.90;;;;;;5054851;28;20029;-71
2021/09/27 05:26:15;;;;;;;49.38;23.25;;;16.50;99.90;;;;;;5054810;28;20036;-72
2021/09/27 05:29:10;;;;;;;46.17;22.27;;;16.60;99.90;;;;;;5072564;28;20024;-69
2021/09/27 05:32:02;;;;;;;43.95;22.08;;;16.60;99.90;;;;;;5045427;28;20131;-70
2021/09/27 05:34:27;;;;;;;;;;;16.60;99.90;;;;;;5055015;28;20038;-71
2021/09/27 05:37:19;;;;;;;49.35;22.15;;;16.60;99.90;;;;;;5054597;28;20331;-73
2021/09/27 05:40:07;;;;;;;44.13;22.67;;;16.50;99.90;;;;;;5072171;28;20024;-71
2021/09/27 05:42:52;;;;;;;44.05;21.92;;;16.60;99.90;;;;;;5069439;28;20031;-71
2021/09/27 05:45:48;;;;;;;39.20;20.67;;;16.60;99.90;;;;;;5054203;28;20127;-71
2021/09/27 05:48:31;;;;;;;39.78;20.45;;;16.70;99.90;;;;;;5054410;28;20464;-72
2021/09/27 05:51:15;;;;;;;40.22;22.30;;;16.80;99.90;;;;;;5072102;28;20024;-71
2021/09/27 05:54:01;;;;;;;42.15;21.90;;;16.90;99.90;;;;;;5051177;28;20034;-71
2021/09/27 05:56:33;;;;;;;48.97;22.98;;;16.90;99.90;;;;;;5053288;28;20025;-70
2021/09/27 05:59:14;;;;;;;;;;;17.00;99.90;;;;;;5072113;28;20032;-69
2021/09/27 06:01:57;;;;;;;43.25;23.23;;;17.10;99.90;;;;;;5053492;28;20273;-69
2021/09/27 06:04:38;;;;;;;40.83;20.48;;;17.10;99.90;;;;;;5071898;28;20031;-69
2021/09/27 06:07:12;;;;;;;39.50;19.25;;;17.20;99.90;;;;;;5053762;28;20534;-69
2021/09/27 06:10:10;;;;;;;32.40;16.88;;;17.40;99.90;;;;;;5072300;28;20033;-71
2021/09/27 06:12:49;;;;;;;30.60;15.52;;;17.50;99.90;;;;;;4970585;28;20055;-70
2021/09/27 06:15:17;;;;;;;35.92;14.48;;;17.60;99.90;;;;;;4969206;28;20050;-70
2021/09/27 06:18:12;;;;;;;29.40;14.57;;;17.70;99.90;;;;;;4969299;28;20122;-71
2021/09/27 06:20:48;;;;;;;30.75;14.50;;;17.80;99.90;;;;;;4961381;28;20133;-68
2021/09/27 06:23:29;;;;;;;33.78;14.65;;;17.90;99.90;;;;;;4974959;28;20162;-70
2021/09/27 06:26:05;;;;;;;23.83;14.67;;;18.10;99.90;;;;;;4974553;28;20027;-68
2021/09/27 06:28:39;;;;;;;28.08;14.63;;;18.20;99.90;;;;;;4955357;28;20031;-71
2021/09/27 06:31:07;;;;;;;28.55;13.43;;;18.40;99.90;;;;;;4974245;28;20130;-73
2021/09/27 06:34:07;;;;;;;26.55;14.10;;;18.50;99.90;;;;;;4974433;28;20030;-72
2021/09/27 06:36:33;;;;;;;36.58;14.00;;;18.60;99.90;;;;;;4973626;28;20070;-73
2021/09/27 06:39:03;;;;;;;35.03;15.05;;;18.80;99.90;;;;;;4974335;28;20031;-71
2021/09/27 06:41:34;;;;;;;31.00;13.50;;;18.90;99.90;;;;;;4974361;28;20045;-73
2021/09/27 06:44:00;;;;;;;23.52;11.65;;;18.90;99.90;;;;;;4957902;28;20039;-70
2021/09/27 06:46:26;;;;;;;24.67;12.80;;;19.00;99.90;;;;;;4974298;28;20045;-71
2021/09/27 06:48:52;;;;;;;27.38;12.10;;;19.20;99.90;;;;;;4987123;28;20037;-72
2021/09/27 06:51:18;;;;;;;23.38;12.13;;;19.30;99.90;;;;;;5054924;28;20033;-71
2021/09/27 06:53:45;;;;;;;20.58;11.52;;;19.40;99.90;;;;;;5054068;28;20029;-72
2021/09/27 06:56:18;;;;;;;21.67;11.02;;;19.50;99.90;;;;;;5055242;28;20028;-75
2021/09/27 06:58:50;;;;;;;20.90;11.52;;;19.60;99.90;;;;;;5055553;28;20112;-73
2021/09/27 07:01:16;;;;;;;35.75;12.45;;;19.70;99.90;;;;;;5053892;28;20035;-71
2021/09/27 07:03:42;;;;;;;24.38;12.90;;;19.80;99.90;;;;;;5055093;28;20021;-72
2021/09/27 07:06:08;;;;;;;29.33;13.18;;;19.80;99.90;;;;;;5055034;28;20128;-68
2021/09/27 07:08:34;;;;;;;27.42;11.57;;;20.00;99.90;;;;;;5055297;28;20594;-69
2021/09/27 07:11:00;;;;;;;24.30;11.32;;;20.10;99.90;;;;;;5053612;28;20041;-70
2021/09/27 07:13:26;;;;;;;25.60;11.50;;;20.20;99.90;;;;;;5055410;28;20428;-70
2021/09/27 07:15:51;;;;;;;25.38;12.48;;;20.30;99.90;;;;;;5074463;28;20507;-72
2021/09/27 07:18:18;;;;;;;31.83;11.75;;;20.50;99.90;;;;;;5074710;28;20028;-71
2021/09/27 07:20:45;;;;;;;45.03;12.98;;;20.60;99.90;;;;;;5074745;28;20060;-70
2021/09/27 07:23:11;;;;;;;38.25;12.73;;;20.70;99.90;;;;;;5056651;28;20033;-72
2021/09/27 07:25:37;;;;;;;23.30;11.13;;;20.90;99.90;;;;;;5074378;28;20040;-72
2021/09/27 07:28:03;;;;;;;23.75;11.77;;;21.00;99.90;;;;;;5056670;28;20024;-74
2021/09/27 07:30:30;;;;;;;27.55;11.05;;;21.10;99.90;;;;;;5074326;28;20032;-71
2021/09/27 07:32:57;;;;;;;31.42;11.30;;;21.30;99.90;;;;;;5056575;28;20051;-72
2021/09/27 07:35:26;;;;;;;22.73;10.70;;;21.40;99.90;;;;;;5074209;28;20477;-72
2021/09/27 07:37:53;;;;;;;21.63;10.90;;;21.60;99.90;;;;;;5056397;28;20033;-71
2021/09/27 07:40:21;;;;;;;22.33;11.00;;;21.80;99.90;;;;;;5056500;28;20028;-71
2021/09/27 07:42:47;;;;;;;21.27;10.13;;;21.90;99.90;;;;;;5074296;28;20036;-72
2021/09/27 07:45:17;;;;;;;25.17;10.13;;;22.10;99.90;;;;;;5073908;28;20468;-71
2021/09/27 07:47:43;;;;;;;22.83;10.85;;;22.20;99.90;;;;;;5074192;28;20112;-71
2021/09/27 07:50:10;;;;;;;24.48;11.70;;;22.30;99.90;;;;;;5074000;28;20103;-71
2021/09/27 07:52:36;;;;;;;26.38;10.63;;;22.40;99.30;;;;;;5073990;28;20453;-71
2021/09/27 07:55:04;;;;;;;27.45;9.68;;;22.60;99.20;;;;;;5073630;28;20108;-72
2021/09/27 07:57:31;;;;;;;23.15;9.52;;;22.80;98.50;;;;;;5056008;28;20044;-72
2021/09/27 07:59:57;;;;;;;22.90;9.35;;;22.90;97.90;;;;;;5073845;28;20039;-71
2021/09/27 08:02:28;;;;;;;26.13;9.73;;;23.00;97.10;;;;;;5073351;28;20471;-71
2021/09/27 08:04:54;;;;;;;25.92;9.65;;;23.20;96.20;;;;;;5055585;28;20082;-71
2021/09/27 08:07:21;;;;;;;20.70;8.70;;;23.30;96.30;;;;;;5055107;28;20461;-71
2021/09/27 08:09:47;;;;;;;16.63;8.15;;;23.40;96.20;;;;;;5073057;28;20029;-71
2021/09/27 08:12:13;;;;;;;22.13;8.38;;;23.60;95.10;;;;;;5055246;28;20086;-72
2021/09/27 08:14:39;;;;;;;18.88;7.80;;;23.80;95.00;;;;;;5071641;28;20044;-72
2021/09/27 08:17:05;;;;;;;18.83;8.77;;;23.90;94.50;;;;;;5072636;28;20124;-73
2021/09/27 08:19:32;;;;;;;22.75;7.35;;;24.10;94.20;;;;;;5055354;28;20032;-72
2021/09/27 08:21:58;;;;;;;21.92;7.78;;;24.30;93.60;;;;;;5055443;28;20358;-72
2021/09/27 08:24:25;;;;;;;19.08;7.85;;;24.50;92.90;;;;;;5073267;28;20032;-71
2021/09/27 08:26:50;;;;;;;18.33;7.60;;;24.70;92.30;;;;;;5073213;28;20078;-71
2021/09/27 08:29:18;;;;;;;18.65;7.07;;;24.80;91.30;;;;;;5073323;28;20025;-71
2021/09/27 08:31:43;;;;;;;23.60;7.80;;;25.00;90.90;;;;;;5073377;28;20073;-71
2021/09/27 08:34:09;;;;;;;19.80;8.38;;;25.10;90.30;;;;;;5073188;28;20074;-72
2021/09/27 08:36:36;;;;;;;22.38;8.57;;;25.20;89.80;;;;;;5073245;28;20035;-72
2021/09/27 08:39:05;;;;;;;20.95;7.10;;;25.40;88.50;;;;;;5072872;28;20392;-72
2021/09/27 08:41:30;;;;;;;26.30;7.63;;;25.40;88.50;;;;;;5055266;28;20036;-72
2021/09/27 08:44:01;;;;;;;25.25;7.15;;;25.60;87.40;;;;;;5071459;28;20478;-71
2021/09/27 08:46:33;;;;;;;26.25;7.28;;;25.70;86.70;;;;;;5073226;28;20457;-72
2021/09/27 08:49:40;;;;;;;23.75;7.88;;;25.90;85.50;;;;;;5073523;28;20035;-71
2021/09/27 08:52:08;;;;;;;19.35;6.72;;;26.00;84.50;;;;;;5072953;28;20491;-72
2021/09/27 08:54:35;;;;;;;18.58;7.20;;;26.20;82.10;;;;;;5073380;28;20028;-71
2021/09/27 08:57:17;;;;;;;22.65;7.30;;;26.20;82.40;;;;;;5073041;28;20032;-72
2021/09/27 09:00:03;;;;;;;18.75;7.93;;;26.30;83.40;;;;;;5054541;28;20350;-71
2021/09/27 09:02:41;;;;;;;19.75;8.02;;;26.50;80.40;;;;;;5053565;28;20037;-71
2021/09/27 09:05:21;;;;;;;26.08;7.80;;;26.70;79.30;;;;;;5072025;28;20067;-72
2021/09/27 09:08:13;;;;;;;19.40;6.93;;;26.80;79.20;;;;;;5072735;28;20056;-72
2021/09/27 09:10:46;;;;;;;21.17;7.40;;;26.90;76.40;;;;;;5072609;28;20037;-73
2021/09/27 09:13:21;;;;;;;17.48;7.03;;;27.10;76.80;;;;;;5072583;28;20132;-73
2021/09/27 09:15:54;;;;;;;15.50;6.93;;;27.10;77.10;;;;;;5072290;28;20412;-73
2021/09/27 09:18:31;;;;;;;27.33;8.40;;;27.20;75.90;;;;;;5072925;28;20029;-73
2021/09/27 09:20:58;;;;;;;15.27;7.05;;;27.40;73.90;;;;;;5072941;28;20033;-72
2021/09/27 09:23:41;;;;;;;19.67;8.30;;;27.50;74.80;;;;;;5072829;28;20085;-73
2021/09/27 09:26:13;;;;;;;20.73;8.07;;;27.70;76.00;;;;;;5072873;28;20460;-73
2021/09/27 09:28:41;;;;;;;23.30;8.00;;;27.90;71.60;;;;;;5072298;28;20083;-70
2021/09/27 09:31:17;;;;;;;25.40;8.57;;;28.00;72.70;;;;;;5054662;28;20040;-73
2021/09/27 09:33:48;;;;;;;19.75;7.13;;;28.10;73.70;;;;;;5054731;28;20032;-72
2021/09/27 09:36:27;;;;;;;13.83;6.17;;;28.30;73.80;;;;;;5072799;28;20473;-71
2021/09/27 09:38:53;;;;;;;18.52;6.38;;;28.40;68.80;;;;;;5054612;28;20028;-71
2021/09/27 09:41:21;;;;;;;21.35;7.60;;;28.60;69.60;;;;;;5072733;28;20046;-72
2021/09/27 09:43:50;;;;;;;14.73;6.55;;;28.80;69.70;;;;;;5071568;28;20377;-71
2021/09/27 09:46:31;;;;;;;18.00;7.38;;;28.80;68.50;;;;;;5072130;28;20060;-72
2021/09/27 09:49:04;;;;;;;17.98;7.43;;;29.00;70.00;;;;;;5072653;28;20024;-71
2021/09/27 09:51:39;;;;;;;16.05;7.80;;;;;;;;;;5054054;28;20071;-72
2021/09/27 09:54:15;;;;;;;23.25;7.22;;;29.10;68.30;;;;;;5054312;28;20493;-71
2021/09/27 09:56:46;;;;;;;21.70;7.65;;;29.20;90.10;;;;;;5076026;28;20429;-72
2021/09/27 09:59:24;;;;;;;15.73;6.35;;;29.30;67.20;;;;;;5076252;28;20428;-72
2021/09/27 10:01:55;;;;;;;21.63;6.72;;;29.50;67.40;;;;;;5076197;28;20521;-71
2021/09/27 10:04:42;;;;;;;13.37;7.10;;;29.60;66.00;;;;;;5076078;28;20020;-71
2021/09/27 10:07:13;;;;;;;14.15;7.10;;;;;;;;;;5075862;28;20249;-71
2021/09/27 10:09:58;;;;;;;18.58;6.22;;;30.00;66.10;;;;;;5075882;28;20052;-71
2021/09/27 10:12:41;;;;;;;14.15;6.60;;;30.10;63.60;;;;;;5075870;28;20044;-71
2021/09/27 10:15:08;;;;;;;20.90;7.05;;;30.30;64.90;;;;;;5075696;28;20081;-71
2021/09/27 10:17:38;;;;;;;17.85;6.50;;;30.50;64.60;;;;;;5075376;28;20443;-72
2021/09/27 10:20:10;;;;;;;13.00;6.80;;;;;;;;;;5072901;28;20099;-72
2021/09/27 10:22:39;;;;;;;14.48;6.10;;;31.50;62.60;;;;;;5074967;28;20028;-71
2021/09/27 10:25:26;;;;;;;10.32;6.70;;;32.00;59.90;;;;;;5075209;28;20031;-71
2021/09/27 10:27:53;;;;;;;12.23;5.57;;;32.30;59.90;;;;;;5075424;28;20358;-71
2021/09/27 10:30:22;;;;;;;19.70;6.07;;;32.90;58.80;;;;;;5075213;28;20037;-71
2021/09/27 10:32:50;;;;;;;13.15;5.35;;;33.30;58.20;;;;;;5075213;28;20112;-72
2021/09/27 10:35:28;;;;;;;13.82;5.80;;;33.70;58.20;;;;;;5075794;28;20028;-71
2021/09/27 10:38:16;;;;;;;17.90;5.57;;;34.10;57.20;;;;;;5075503;28;20033;-72
2021/09/27 10:40:46;;;;;;;15.20;6.05;;;34.30;57.50;;;;;;5057541;28;20036;-72
2021/09/27 10:43:15;;;;;;;13.20;5.43;;;34.40;55.30;;;;;;5057389;28;20032;-73
2021/09/27 10:45:45;;;;;;;9.90;5.32;;;34.90;55.80;;;;;;5075299;28;20036;-71
2021/09/27 10:48:11;;;;;;;12.87;4.80;;;35.30;53.40;;;;;;5075453;28;20039;-71
2021/09/27 10:50:44;;;;;;;12.25;5.35;;;36.00;53.10;;;;;;5075236;28;20029;-71
2021/09/27 10:53:24;;;;;;;13.05;5.07;;;36.20;53.10;;;;;;5075408;28;20052;-72
2021/09/27 10:56:19;;;;;;;9.02;4.47;;;36.70;51.10;;;;;;5075154;28;20462;-71
2021/09/27 10:59:03;;;;;;;13.13;5.07;;;36.50;49.30;;;;;;5075234;28;20052;-73
2021/09/27 11:01:37;;;;;;;22.10;4.65;;;37.00;49.80;;;;;;5075165;28;20107;-71
2021/09/27 11:04:19;;;;;;;9.95;4.63;;;36.80;49.40;;;;;;5056610;28;20024;-73
2021/09/27 11:06:56;;;;;;;15.15;5.72;;;37.10;49.50;;;;;;5074293;28;20029;-71
2021/09/27 11:09:37;;;;;;;10.70;4.50;;;37.80;50.00;;;;;;5074852;28;20052;-71
2021/09/27 11:12:31;;;;;;;10.68;4.75;;;38.40;47.70;;;;;;5074870;28;20028;-71
2021/09/27 11:15:06;;;;;;;10.50;4.85;;;38.10;47.00;;;;;;5074264;28;20167;-71
2021/09/27 11:17:40;;;;;;;7.68;4.20;;;38.00;46.70;;;;;;5075005;28;20085;-71
2021/09/27 11:20:41;;;;;;;7.03;4.50;;;;;;;;;;5074652;28;20428;-72
2021/09/27 11:23:30;;;;;;;11.43;4.25;;;38.10;46.50;;;;;;4973450;28;20019;-71
2021/09/27 11:26:13;;;;;;;10.10;4.55;;;38.70;45.70;;;;;;5069867;28;20405;-71
2021/09/27 11:28:45;;;;;;;7.03;3.88;;;39.10;45.90;;;;;;5074314;28;20024;-73
2021/09/27 11:31:32;;;;;;;11.38;4.15;;;39.20;45.60;;;;;;5051874;28;20064;-72
2021/09/27 11:34:00;;;;;;;11.50;4.32;;;38.00;44.80;;;;;;5073454;28;20020;-73
2021/09/27 11:36:44;;;;;;;9.05;4.03;;;37.50;46.00;;;;;;5073751;28;20556;-73
2021/09/27 11:39:38;;;;;;;10.52;4.15;;;36.90;47.30;;;;;;5073901;28;20074;-73
2021/09/27 11:42:10;;;;;;;10.15;3.92;;;;;;;;;;5074017;28;20107;-74
2021/09/27 11:44:58;;;;;;;7.97;4.28;;;37.70;47.60;;;;;;5073422;28;20020;-73
2021/09/27 11:47:29;;;;;;;9.18;3.90;;;;;;;;;;5055528;28;20032;-71
2021/09/27 11:50:09;;;;;;;;;;;39.30;45.60;;;;;;5073853;28;20092;-72
2021/09/27 11:53:02;;;;;;;13.35;4.22;;;36.70;47.10;;;;;;5073636;28;19963;-74
2021/09/27 11:55:45;;;;;;;10.38;4.22;;;;;;;;;;5073676;28;20029;-72
2021/09/27 11:58:35;;;;;;;10.70;4.00;;;36.60;48.90;;;;;;5055485;28;20016;-72
2021/09/27 12:01:39;;;;;;;9.57;3.60;;;37.70;47.10;;;;;;5054268;28;20054;-73
2021/09/27 12:04:15;;;;;;;9.00;3.60;;;35.90;46.80;;;;;;5039987;28;20040;-71
2021/09/27 12:06:44;;;;;;;10.00;4.68;;;;;;;;;;5073727;28;20089;-72
2021/09/27 12:09:10;;;;;;;8.13;4.22;;;;;;;;;;5055523;28;20028;-73
2021/09/27 12:11:45;;;;;;;8.38;4.15;;;;;;;;;;5073516;28;20105;-72
2021/09/27 12:14:34;;;;;;;8.50;4.30;;;36.00;48.40;;;;;;5054941;28;20052;-73
2021/09/27 12:17:05;;;;;;;8.10;4.32;;;40.10;45.30;;;;;;5072930;28;20040;-72
2021/09/27 12:19:33;;;;;;;8.63;4.18;;;39.60;44.90;;;;;;5072903;28;20600;-73
2021/09/27 12:22:06;;;;;;;13.75;5.20;;;40.60;45.20;;;;;;5073117;28;20488;-72
2021/09/27 12:24:39;;;;;;;9.68;4.30;;;40.20;43.60;;;;;;5055516;28;20032;-70
2021/09/27 12:27:13;;;;;;;9.35;5.15;;;39.70;43.80;;;;;;5073021;28;20079;-73
2021/09/27 12:29:53;;;;;;;13.65;5.05;;;40.10;43.80;;;;;;5073314;28;20059;-71
2021/09/27 12:32:43;;;;;;;12.73;5.00;;;40.10;43.70;;;;;;5055164;28;20036;-73
2021/09/27 12:35:15;;;;;;;15.82;4.72;;;40.00;44.10;;;;;;5073323;28;20484;-74
2021/09/27 12:37:43;;;;;;;13.40;3.95;;;41.10;44.10;;;;;;5073247;28;20028;-72
2021/09/27 12:40:13;;;;;;;8.05;4.32;;;41.60;43.70;;;;;;5072586;28;20043;-72
2021/09/27 12:42:58;;;;;;;7.63;4.35;;;41.40;43.10;;;;;;5055116;28;20025;-72
2021/09/27 12:45:28;;;;;;;16.13;4.40;;;42.10;43.10;;;;;;5055099;28;20076;-72
2021/09/27 12:47:56;;;;;;;15.37;4.80;;;42.00;45.30;;;;;;5073060;28;20035;-71
2021/09/27 12:50:26;;;;;;;14.43;4.95;;;40.60;42.70;;;;;;5073018;28;20028;-71
2021/09/27 12:52:56;;;;;;;11.57;4.95;;;40.20;43.50;;;;;;5072815;28;20427;-71
2021/09/27 12:55:26;;;;;;;10.00;4.80;;;39.70;44.00;;;;;;5073078;28;20029;-71
2021/09/27 12:57:55;;;;;;;;;;;39.60;44.20;;;;;;5073678;28;20031;-72
2021/09/27 13:00:34;;;;;;;10.57;4.43;;;39.90;43.90;;;;;;5072218;28;19905;-71
2021/09/27 13:03:07;;;;;;;9.68;4.88;;;39.80;43.80;;;;;;5072669;28;20560;-71
2021/09/27 13:05:52;;;;;;;8.93;4.68;;;40.10;43.80;;;;;;5054527;28;20024;-70
2021/09/27 13:08:38;;;;;;;10.07;5.38;;;40.40;43.70;;;;;;5072836;28;20024;-71
2021/09/27 13:11:04;;;;;;;11.48;5.43;;;40.80;43.50;;;;;;5054614;28;20040;-71
2021/09/27 13:13:33;;;;;;;14.95;6.25;;;40.70;43.30;;;;;;5072876;28;20469;-71
2021/09/27 13:16:15;;;;;;;8.10;4.97;;;40.30;43.30;;;;;;5072981;28;20055;-72
2021/09/27 13:18:45;;;;;;;13.00;5.38;;;38.00;44.40;;;;;;5054798;28;20501;-73
2021/09/27 13:21:36;;;;;;;12.90;6.32;;;35.80;47.30;;;;;;5072742;28;20028;-73
2021/09/27 13:24:09;;;;;;;10.05;5.05;;;35.30;49.10;;;;;;5072083;28;20028;-72